57°F Temp
52°F Dewpoint
% Humidity
Temperature
3 MPH
5 KM/H
3 KTS
190°
Due South

Wind Speed
Clear
Conditions
Pressure 1025.72 (hPa) - 30.29 (in)
Visibility 10.0 (mi) - 16.1 (km)

Current Conditions
KEQY
Location 15.55km (9.66mi)
Metar :KEQY 210553Z AUTO 19003KT 10SM CLR 14/11 A3029 RMK AO2 SLP263 T01390106 10206 20139 53004 $
Sat 21st September 01:53 am

Airport
  Metar Aviation API Data Provided by https://www.checkwx.com/ CSS/SVG/PHP scripts by weather34.com © 2015-2019